KGYL

Glencoe Municipal Airport

Glencoe, Minnesota, USA
METAR KGYL 171415Z AUTO 00000KT 10SM CLR M07/M07 A3027 RMK AO2 T10661072
Observed Flight Rules
Dec-17 @ 14:15 UTC (15 minutes ago) Visual Flight Rules
Visibility Clouds
10 miles
  • Clear skies
Temperatures Readings
Current -7°C / 19°F
Dewpoint -7°C / 19°F
Humidity 100%
Altimeter 30.27" Hg
Pressure 1025 hPa
Elevation 302
METAR KGYL 171415Z AUTO 00000KT 10SM CLR M07/M07 A3027 RMK AO2 T10661072
Observed Flight Rules
Dec-17 @ 14:15 UTC
(15 minutes ago)
VFR
Clouds
  • Clear skies
Temperature Dewpoint
-7°C / 19°F -7°C / 19°F
Humidity Altimeter Pressure
100% 30.27" Hg 1025 hPa